White Plains, NY

8:19 PM EDT on July 29, 2016 (GMT -0400)
Woodcrest Heights | | Change Station

Elev 285 ft 41.04 °N, 73.76 °W | Updated 13 seconds ago

Scattered Clouds
Scattered Clouds
77.9 °F
Feels Like 80 °F
N
0.0
Wind Variable Wind from SE
Gusts 0.0 mph

Today
High -- | Low -- °F
--% Chance of Precip.
Yesterday
High -- | Low -- °F
Precip. -- in
Pressure 29.87 in
Visibility 10.0 miles
Clouds Few 4000 ft
Scattered Clouds 6000 ft
Heat Index 80 °F
Dew Point 68 °F
Humidity 73%
Rainfall 1.29 in
Snow Depth Not available.
5:48 AM 8:13 PM
Waning Crescent, 18% visible
METAR KHPN 292356Z 00000KT 10SM FEW040 SCT060 24/21 A2989 RMK AO2 SLP115 T02440211 10283 20244 51014 $
Pressure 29.87 in
Visibility 10.0 miles
Clouds Few 4000 ft
Scattered Clouds 6000 ft
Heat Index 80 °F
Dew Point 68 °F
Humidity 73%
Rainfall 1.29 in
Snow Depth Not available.
5:48 AM 8:13 PM
Waning Crescent, 18% visible
METAR KHPN 292356Z 00000KT 10SM FEW040 SCT060 24/21 A2989 RMK AO2 SLP115 T02440211 10283 20244 51014 $

10-Day Weather Forecast

Almanac

Astronomy

Jul. 29, 2016 Rise Set
Actual Time
Civil Twilight
Nautical Twilight
Astronomical Twilight
Moon
Length of Visible Light
Length of Day
Tomorrow will be .
, % of the Moon is Illuminated

Today's Extremes

State Highs State Lows

Community

WunderPhotos

Upload Photos

1,928,449 photos uploaded!

WunderBlog® & News

Nearby

Air Quality

  Air Quality AQ Index Pollutant
Not available.

Snow Depth

Station Depth Elevation

Earthquake Activity

City Distance Mag. Time & Date
Minimum magnitude displayed is 2.5.

Coastal Water Temperatures

Place Temperature

Stations

Nearby Weather Stations

Station Location Temp. Windchill Dew Point Humidity Wind Precip. Elev Updated Type
                   

Watches & Warnings

There are currently no watches in effect.